Stations météo

réclame
Mon MeteoGroup
Great Dun Fell, Grande-Bretagne (3227): Température de l'air & dewpoint: 17.11.2017 11:00:00 - 23.11.2017 11:00:00 (GMT)Great Dun Fell, Grande-Bretagne (3227): Vitesse du vent & gusts: 17.11.2017 11:00:00 - 23.11.2017 11:00:00 (GMT)Great Dun Fell, Grande-Bretagne (3227): Direction du vent: 17.11.2017 11:00:00 - 23.11.2017 11:00:00 (GMT)
Date & Time tt [°C] td [°C] ff [km/h] ff [knt] fx [km/h] fx [knt] dd
23.11.2017 11:00:00 - - - - - - -
23.11.2017 10:00:00 -0,2 -0,2 74 40 98 53 SW
23.11.2017 09:00:00 -1,2 -1,2 57 31 76 41 WSW
23.11.2017 08:00:00 -1,4 -1,4 54 29 63 34 WSW
23.11.2017 07:00:00 -1,3 -1,3 44 24 74 40 WSW
23.11.2017 06:00:00 -1,6 -1,6 46 25 70 38 WSW
23.11.2017 05:00:00 -0,7 -0,7 55 30 76 41 WSW
23.11.2017 04:00:00 0,4 0,4 44 24 68 37 W
23.11.2017 03:00:00 1,0 1,0 57 31 68 37 W
23.11.2017 02:00:00 3,1 3,1 35 19 52 28 WSW
23.11.2017 01:00:00 3,1 3,1 46 25 67 36 W
23.11.2017 00:00:00 3,4 3,3 42 23 52 28 W
22.11.2017 23:00:00 3,9 3,7 41 22 48 26 W
22.11.2017 22:00:00 4,4 4,0 24 13 - - WSW
22.11.2017 21:00:00 5,6 4,9 8 4 - - WNW
22.11.2017 20:00:00 5,4 4,6 13 7 - - W
22.11.2017 19:00:00 5,7 4,8 22 12 - - WSW
22.11.2017 18:00:00 5,9 4,9 42 23 68 37 WSW
22.11.2017 17:00:00 6,5 5,7 57 31 115 62 WSW
22.11.2017 16:00:00 8,2 8,2 94 51 131 71 SW
22.11.2017 15:00:00 8,2 - 111 60 131 71 SW
22.11.2017 14:00:00 8,3 8,3 111 60 133 72 SW
22.11.2017 13:00:00 8,3 8,3 104 56 143 77 SW
22.11.2017 12:00:00 8,4 8,4 107 58 130 70 SW
22.11.2017 11:00:00 8,2 8,2 104 56 126 68 SW
22.11.2017 10:00:00 7,8 7,8 91 49 111 60 SW
22.11.2017 09:00:00 6,8 6,8 74 40 89 48 SW
22.11.2017 08:00:00 4,8 4,8 39 21 57 31 SW
22.11.2017 07:00:00 4,8 4,8 46 25 63 34 WSW
22.11.2017 06:00:00 4,7 4,7 48 26 63 34 WSW
22.11.2017 05:00:00 5,0 5,0 46 25 57 31 SW
22.11.2017 04:00:00 5,2 5,2 50 27 59 32 SW
22.11.2017 03:00:00 5,1 5,1 48 26 59 32 SW
22.11.2017 02:00:00 5,2 5,2 48 26 61 33 SW
22.11.2017 01:00:00 4,7 4,7 57 31 65 35 SW
22.11.2017 00:00:00 5,2 5,2 59 32 81 44 WSW
21.11.2017 23:00:00 6,4 6,4 59 32 70 38 SW
21.11.2017 22:00:00 6,4 6,4 52 28 68 37 SW
21.11.2017 21:00:00 6,9 6,9 57 31 83 45 WSW
21.11.2017 20:00:00 7,7 7,7 52 28 70 38 WSW
21.11.2017 19:00:00 7,3 7,3 61 33 80 43 SW
21.11.2017 18:00:00 7,2 7,2 67 36 83 45 SW
21.11.2017 17:00:00 7,0 7,0 67 36 85 46 SW
21.11.2017 16:00:00 6,1 6,1 68 37 - - SW
21.11.2017 15:00:00 6,5 6,5 74 40 91 49 WSW
21.11.2017 14:00:00 6,4 6,4 76 41 102 55 SW
21.11.2017 13:00:00 6,8 6,8 74 40 87 47 SW
21.11.2017 12:00:00 7,7 7,7 52 28 63 34 WSW
21.11.2017 11:00:00 7,8 7,8 42 23 52 28 SW
21.11.2017 10:00:00 7,6 7,6 31 17 - - SW
21.11.2017 09:00:00 7,8 7,8 29 16 - - WSW
21.11.2017 08:00:00 7,7 7,7 28 15 - - WSW
21.11.2017 07:00:00 7,3 7,3 21 11 - - WSW
21.11.2017 06:00:00 6,5 6,5 18 10 - - SW
21.11.2017 05:00:00 6,5 6,5 24 13 - - SW
21.11.2017 04:00:00 6,5 6,5 21 11 - - SW
21.11.2017 03:00:00 6,4 6,4 22 12 - - WSW
21.11.2017 02:00:00 6,5 6,5 26 14 - - W
21.11.2017 01:00:00 6,3 6,3 26 14 - - W
21.11.2017 00:00:00 6,4 6,4 34 18 - - W
20.11.2017 23:00:00 6,1 6,1 34 18 48 26 W
20.11.2017 22:00:00 6,2 6,2 44 24 54 29 W
20.11.2017 21:00:00 6,1 6,1 42 23 57 31 W
20.11.2017 20:00:00 6,1 6,1 42 23 59 32 W
20.11.2017 19:00:00 6,1 6,1 44 24 57 31 W
20.11.2017 18:00:00 6,2 6,2 44 24 59 32 W
20.11.2017 17:00:00 6,3 6,3 46 25 68 37 W
20.11.2017 16:00:00 6,4 6,4 54 29 68 37 W
20.11.2017 15:00:00 6,4 6,4 55 30 80 43 W
20.11.2017 14:00:00 6,4 6,4 67 36 85 46 W
20.11.2017 13:00:00 6,4 6,4 55 30 74 40 W
20.11.2017 12:00:00 6,2 6,2 52 28 67 36 W
20.11.2017 11:00:00 5,8 5,8 42 23 74 40 W
20.11.2017 10:00:00 6,0 6,0 46 25 72 39 W
20.11.2017 09:00:00 6,0 6,0 52 28 76 41 W
20.11.2017 08:00:00 6,4 6,4 61 33 76 41 WSW
20.11.2017 07:00:00 4,7 4,7 41 22 50 27 WSW
20.11.2017 06:00:00 4,2 4,2 44 24 59 32 SW
20.11.2017 05:00:00 3,9 3,9 44 24 61 33 SW
20.11.2017 04:00:00 3,7 3,7 50 27 65 35 SW
20.11.2017 03:00:00 2,7 2,7 50 27 67 36 SW
20.11.2017 02:00:00 2,4 2,4 50 27 67 36 SW
20.11.2017 01:00:00 1,4 1,4 57 31 65 35 SW
20.11.2017 00:00:00 0,6 0,6 37 20 - - SSW
19.11.2017 23:00:00 0,7 0,7 29 16 - - SSW
19.11.2017 22:00:00 0,4 0,4 34 18 - - SW
19.11.2017 21:00:00 -0,8 -0,8 39 21 46 25 SW
19.11.2017 20:00:00 -1,1 -1,3 35 19 - - SW
19.11.2017 19:00:00 -1,0 -2,0 31 17 - - SW
19.11.2017 18:00:00 -1,1 -1,8 31 17 - - WSW
19.11.2017 17:00:00 -1,1 -2,6 28 15 - - WSW
19.11.2017 16:00:00 -1,3 -2,4 34 18 - - WSW
19.11.2017 15:00:00 -1,9 -2,6 26 14 - - WSW
19.11.2017 14:00:00 -1,8 -2,6 24 13 - - W
19.11.2017 13:00:00 -1,3 -3,5 16 9 - - W
19.11.2017 12:00:00 -1,8 -3,3 15 8 - - W
19.11.2017 11:00:00 -2,1 -5,2 9 5 - - WSW
19.11.2017 10:00:00 -0,9 -5,0 16 9 - - N
19.11.2017 09:00:00 -2,2 -4,1 15 8 - - NW
19.11.2017 08:00:00 -0,9 -3,3 26 14 - - NNW
19.11.2017 07:00:00 -1,1 -2,3 26 14 - - NNW
19.11.2017 06:00:00 -2,3 -3,7 18 10 - - NW
19.11.2017 05:00:00 -2,2 -3,2 16 9 - - WNW
19.11.2017 04:00:00 -1,7 -4,3 31 17 - - NW
19.11.2017 03:00:00 -2,1 -4,0 22 12 - - NW
19.11.2017 02:00:00 -1,0 -3,6 37 20 50 27 NNW
19.11.2017 01:00:00 -1,1 -4,4 42 23 50 27 NNW
19.11.2017 00:00:00 -2,5 -3,5 37 20 52 28 NNW
18.11.2017 23:00:00 -2,4 -3,0 41 22 55 30 NW
18.11.2017 22:00:00 -2,5 -2,5 41 22 55 30 NW
18.11.2017 21:00:00 -1,9 -1,9 46 25 55 30 NW
18.11.2017 20:00:00 -2,0 -2,0 50 27 63 34 NNW
18.11.2017 19:00:00 -1,2 -1,2 48 26 63 34 NW
18.11.2017 18:00:00 -1,1 -1,1 41 22 54 29 NW
18.11.2017 17:00:00 -0,8 -0,8 37 20 54 29 WNW
18.11.2017 16:00:00 -0,8 -0,8 46 25 61 33 WNW
18.11.2017 15:00:00 -0,5 -0,7 41 22 65 35 WNW
18.11.2017 14:00:00 -0,7 -1,4 48 26 67 36 NW
18.11.2017 13:00:00 -0,6 -1,7 41 22 57 31 WNW
18.11.2017 12:00:00 -0,7 -0,9 44 24 59 32 NW
18.11.2017 11:00:00 -0,3 -0,3 48 26 67 36 WNW
18.11.2017 10:00:00 0,0 0,0 46 25 70 38 NW
18.11.2017 09:00:00 0,4 0,4 52 28 72 39 WNW
18.11.2017 08:00:00 1,1 1,1 46 25 70 38 WNW
18.11.2017 07:00:00 1,6 1,6 57 31 85 46 W
18.11.2017 06:00:00 1,5 1,5 65 35 89 48 W
18.11.2017 05:00:00 1,4 1,4 67 36 91 49 W
18.11.2017 04:00:00 1,6 1,6 78 42 94 51 W
18.11.2017 03:00:00 1,7 1,7 81 44 96 52 W
18.11.2017 02:00:00 1,6 1,6 80 43 96 52 W
18.11.2017 01:00:00 1,4 1,4 74 40 - - W
18.11.2017 00:00:00 1,2 1,2 70 38 91 49 W
17.11.2017 23:00:00 1,2 1,2 63 34 76 41 W
17.11.2017 22:00:00 1,0 1,0 61 33 76 41 W
17.11.2017 21:00:00 1,0 1,0 61 33 72 39 W
17.11.2017 20:00:00 1,2 1,2 63 34 74 40 WSW
17.11.2017 19:00:00 1,1 1,1 63 34 76 41 WSW
17.11.2017 18:00:00 0,8 0,8 61 33 76 41 W
17.11.2017 17:00:00 0,8 0,8 65 35 76 41 W
17.11.2017 16:00:00 0,9 0,9 67 36 78 42 WSW
17.11.2017 15:00:00 0,9 0,9 55 30 68 37 W
17.11.2017 14:00:00 0,9 0,9 59 32 68 37 W
17.11.2017 13:00:00 0,7 0,7 59 32 67 36 W
17.11.2017 12:00:00 0,4 0,4 50 27 59 32 W
17.11.2017 11:00:00 0,0 0,0 48 26 57 31 W

tt = Température de l'air
td = dewpoint
ff = Vitesse du vent
fx = gusts
dd = Direction du vent

stations d'obs. à proximité